sensor_id;sensor_type;location;lat;lon;timestamp;P1;durP1;ratioP1;P2;durP2;ratioP2
5912;SDS011;2982;42.684;23.356;2022-07-30T00:01:28;3.38;;;3.17;;
5912;SDS011;2982;42.684;23.356;2022-07-30T00:03:54;3.10;;;2.83;;
5912;SDS011;2982;42.684;23.356;2022-07-30T00:06:19;3.63;;;3.05;;
5912;SDS011;2982;42.684;23.356;2022-07-30T00:08:44;5.13;;;2.75;;
5912;SDS011;2982;42.684;23.356;2022-07-30T00:11:09;2.80;;;2.65;;
5912;SDS011;2982;42.684;23.356;2022-07-30T00:13:35;2.88;;;2.67;;
5912;SDS011;2982;42.684;23.356;2022-07-30T00:16:00;3.20;;;2.70;;
5912;SDS011;2982;42.684;23.356;2022-07-30T00:18:25;2.50;;;2.40;;
5912;SDS011;2982;42.684;23.356;2022-07-30T00:20:50;3.38;;;3.13;;
5912;SDS011;2982;42.684;23.356;2022-07-30T00:23:16;3.58;;;3.20;;
5912;SDS011;2982;42.684;23.356;2022-07-30T00:25:41;13.02;;;7.03;;
5912;SDS011;2982;42.684;23.356;2022-07-30T00:28:06;6.88;;;6.13;;
5912;SDS011;2982;42.684;23.356;2022-07-30T00:30:32;7.28;;;6.53;;
5912;SDS011;2982;42.684;23.356;2022-07-30T00:32:57;8.32;;;7.47;;
5912;SDS011;2982;42.684;23.356;2022-07-30T00:35:22;7.13;;;6.47;;
5912;SDS011;2982;42.684;23.356;2022-07-30T00:37:48;7.07;;;6.40;;
5912;SDS011;2982;42.684;23.356;2022-07-30T00:40:13;6.43;;;5.80;;
5912;SDS011;2982;42.684;23.356;2022-07-30T00:42:45;6.57;;;5.68;;
5912;SDS011;2982;42.684;23.356;2022-07-30T00:45:12;5.45;;;5.05;;
5912;SDS011;2982;42.684;23.356;2022-07-30T00:47:38;5.03;;;4.55;;
5912;SDS011;2982;42.684;23.356;2022-07-30T00:50:05;4.63;;;4.22;;
5912;SDS011;2982;42.684;23.356;2022-07-30T00:52:33;3.63;;;3.38;;
5912;SDS011;2982;42.684;23.356;2022-07-30T00:54:59;4.75;;;3.55;;
5912;SDS011;2982;42.684;23.356;2022-07-30T00:57:25;3.10;;;2.90;;
5912;SDS011;2982;42.684;23.356;2022-07-30T00:59:51;3.33;;;3.08;;
5912;SDS011;2982;42.684;23.356;2022-07-30T01:02:16;2.67;;;2.58;;
5912;SDS011;2982;42.684;23.356;2022-07-30T01:04:41;6.55;;;2.45;;
5912;SDS011;2982;42.684;23.356;2022-07-30T01:07:06;4.47;;;2.95;;
5912;SDS011;2982;42.684;23.356;2022-07-30T01:09:32;5.70;;;2.90;;
5912;SDS011;2982;42.684;23.356;2022-07-30T01:11:57;3.08;;;2.88;;
5912;SDS011;2982;42.684;23.356;2022-07-30T01:14:23;3.25;;;3.05;;
5912;SDS011;2982;42.684;23.356;2022-07-30T01:16:48;3.17;;;2.95;;
5912;SDS011;2982;42.684;23.356;2022-07-30T01:19:19;3.42;;;3.20;;
5912;SDS011;2982;42.684;23.356;2022-07-30T01:21:47;3.53;;;2.55;;
5912;SDS011;2982;42.684;23.356;2022-07-30T01:24:27;3.00;;;2.80;;
5912;SDS011;2982;42.684;23.356;2022-07-30T01:27:00;3.47;;;3.17;;
5912;SDS011;2982;42.684;23.356;2022-07-30T01:29:26;3.15;;;2.95;;
5912;SDS011;2982;42.684;23.356;2022-07-30T01:31:55;3.50;;;3.25;;
5912;SDS011;2982;42.684;23.356;2022-07-30T01:34:22;3.35;;;3.15;;
5912;SDS011;2982;42.684;23.356;2022-07-30T01:36:48;5.82;;;3.17;;
5912;SDS011;2982;42.684;23.356;2022-07-30T01:39:15;3.47;;;3.17;;
5912;SDS011;2982;42.684;23.356;2022-07-30T01:41:42;2.97;;;2.78;;
5912;SDS011;2982;42.684;23.356;2022-07-30T01:44:09;3.15;;;2.95;;
5912;SDS011;2982;42.684;23.356;2022-07-30T01:46:36;4.85;;;3.03;;
5912;SDS011;2982;42.684;23.356;2022-07-30T01:49:02;3.22;;;3.13;;
5912;SDS011;2982;42.684;23.356;2022-07-30T01:51:28;2.97;;;2.78;;
5912;SDS011;2982;42.684;23.356;2022-07-30T01:53:55;3.67;;;3.38;;
5912;SDS011;2982;42.684;23.356;2022-07-30T01:56:23;3.67;;;3.00;;
5912;SDS011;2982;42.684;23.356;2022-07-30T01:58:50;3.00;;;2.80;;
5912;SDS011;2982;42.684;23.356;2022-07-30T02:01:17;4.07;;;3.50;;
5912;SDS011;2982;42.684;23.356;2022-07-30T02:03:43;7.57;;;3.25;;
5912;SDS011;2982;42.684;23.356;2022-07-30T02:06:12;4.40;;;3.47;;
5912;SDS011;2982;42.684;23.356;2022-07-30T02:08:54;5.45;;;3.17;;
5912;SDS011;2982;42.684;23.356;2022-07-30T02:11:22;5.88;;;3.03;;
5912;SDS011;2982;42.684;23.356;2022-07-30T02:13:49;6.25;;;3.08;;
5912;SDS011;2982;42.684;23.356;2022-07-30T02:16:18;5.60;;;2.95;;
5912;SDS011;2982;42.684;23.356;2022-07-30T02:19:01;3.55;;;3.13;;
5912;SDS011;2982;42.684;23.356;2022-07-30T02:21:30;5.55;;;3.47;;
5912;SDS011;2982;42.684;23.356;2022-07-30T02:23:59;3.35;;;3.15;;
5912;SDS011;2982;42.684;23.356;2022-07-30T02:26:29;3.55;;;2.78;;
5912;SDS011;2982;42.684;23.356;2022-07-30T02:28:57;4.75;;;3.45;;
5912;SDS011;2982;42.684;23.356;2022-07-30T02:31:26;3.83;;;3.50;;
5912;SDS011;2982;42.684;23.356;2022-07-30T02:33:55;5.07;;;3.22;;
5912;SDS011;2982;42.684;23.356;2022-07-30T02:36:23;3.63;;;2.80;;
5912;SDS011;2982;42.684;23.356;2022-07-30T02:38:50;3.05;;;2.92;;
5912;SDS011;2982;42.684;23.356;2022-07-30T02:41:17;3.47;;;3.17;;
5912;SDS011;2982;42.684;23.356;2022-07-30T02:43:44;5.40;;;2.88;;
5912;SDS011;2982;42.684;23.356;2022-07-30T02:46:12;3.47;;;3.28;;
5912;SDS011;2982;42.684;23.356;2022-07-30T02:48:40;3.30;;;3.00;;
5912;SDS011;2982;42.684;23.356;2022-07-30T02:51:06;8.90;;;3.40;;
5912;SDS011;2982;42.684;23.356;2022-07-30T02:53:32;4.35;;;3.15;;
5912;SDS011;2982;42.684;23.356;2022-07-30T02:55:58;3.67;;;3.38;;
5912;SDS011;2982;42.684;23.356;2022-07-30T02:58:25;3.42;;;3.22;;
5912;SDS011;2982;42.684;23.356;2022-07-30T03:00:52;4.38;;;3.00;;
5912;SDS011;2982;42.684;23.356;2022-07-30T03:03:19;3.65;;;3.45;;
5912;SDS011;2982;42.684;23.356;2022-07-30T03:05:45;3.35;;;3.08;;
5912;SDS011;2982;42.684;23.356;2022-07-30T03:08:15;3.65;;;3.38;;
5912;SDS011;2982;42.684;23.356;2022-07-30T03:10:41;3.40;;;3.10;;
5912;SDS011;2982;42.684;23.356;2022-07-30T03:13:08;4.95;;;3.53;;
5912;SDS011;2982;42.684;23.356;2022-07-30T03:15:35;7.15;;;4.10;;
5912;SDS011;2982;42.684;23.356;2022-07-30T03:18:04;3.80;;;3.50;;
5912;SDS011;2982;42.684;23.356;2022-07-30T03:20:33;4.07;;;3.72;;
5912;SDS011;2982;42.684;23.356;2022-07-30T03:22:59;3.42;;;3.22;;
5912;SDS011;2982;42.684;23.356;2022-07-30T03:25:26;4.03;;;3.63;;
5912;SDS011;2982;42.684;23.356;2022-07-30T03:27:54;3.90;;;3.60;;
5912;SDS011;2982;42.684;23.356;2022-07-30T03:30:21;7.63;;;3.88;;
5912;SDS011;2982;42.684;23.356;2022-07-30T03:32:49;4.53;;;3.85;;
5912;SDS011;2982;42.684;23.356;2022-07-30T03:35:15;6.68;;;3.92;;
5912;SDS011;2982;42.684;23.356;2022-07-30T03:37:41;5.93;;;4.00;;
5912;SDS011;2982;42.684;23.356;2022-07-30T03:40:07;3.78;;;3.28;;
5912;SDS011;2982;42.684;23.356;2022-07-30T03:42:33;6.85;;;4.18;;
5912;SDS011;2982;42.684;23.356;2022-07-30T03:45:00;4.90;;;4.05;;
5912;SDS011;2982;42.684;23.356;2022-07-30T03:47:31;5.88;;;4.88;;
5912;SDS011;2982;42.684;23.356;2022-07-30T03:49:58;3.97;;;3.67;;
5912;SDS011;2982;42.684;23.356;2022-07-30T03:52:25;4.57;;;4.25;;
5912;SDS011;2982;42.684;23.356;2022-07-30T03:54:52;4.53;;;4.00;;
5912;SDS011;2982;42.684;23.356;2022-07-30T03:57:18;4.43;;;3.58;;
5912;SDS011;2982;42.684;23.356;2022-07-30T03:59:43;7.75;;;3.80;;
5912;SDS011;2982;42.684;23.356;2022-07-30T04:02:09;7.13;;;4.70;;
5912;SDS011;2982;42.684;23.356;2022-07-30T04:04:34;4.82;;;4.30;;
5912;SDS011;2982;42.684;23.356;2022-07-30T04:07:00;4.40;;;4.07;;
5912;SDS011;2982;42.684;23.356;2022-07-30T04:09:25;6.90;;;3.80;;
5912;SDS011;2982;42.684;23.356;2022-07-30T04:11:50;5.25;;;3.92;;
5912;SDS011;2982;42.684;23.356;2022-07-30T04:14:16;4.70;;;3.92;;
5912;SDS011;2982;42.684;23.356;2022-07-30T04:16:51;4.53;;;4.30;;
5912;SDS011;2982;42.684;23.356;2022-07-30T04:19:41;4.60;;;4.22;;
5912;SDS011;2982;42.684;23.356;2022-07-30T04:22:10;5.15;;;4.13;;
5912;SDS011;2982;42.684;23.356;2022-07-30T04:24:38;7.15;;;5.05;;
5912;SDS011;2982;42.684;23.356;2022-07-30T04:27:04;5.03;;;4.57;;
5912;SDS011;2982;42.684;23.356;2022-07-30T04:29:30;5.63;;;5.28;;
5912;SDS011;2982;42.684;23.356;2022-07-30T04:31:55;5.97;;;5.03;;
5912;SDS011;2982;42.684;23.356;2022-07-30T04:34:21;6.20;;;5.25;;
5912;SDS011;2982;42.684;23.356;2022-07-30T04:36:47;6.18;;;5.50;;
5912;SDS011;2982;42.684;23.356;2022-07-30T04:39:12;6.35;;;4.97;;
5912;SDS011;2982;42.684;23.356;2022-07-30T04:41:38;5.65;;;4.13;;
5912;SDS011;2982;42.684;23.356;2022-07-30T04:44:04;7.68;;;5.00;;
5912;SDS011;2982;42.684;23.356;2022-07-30T04:46:30;9.77;;;5.15;;
5912;SDS011;2982;42.684;23.356;2022-07-30T04:48:55;5.97;;;5.32;;
5912;SDS011;2982;42.684;23.356;2022-07-30T04:51:25;5.68;;;5.18;;
5912;SDS011;2982;42.684;23.356;2022-07-30T04:53:53;10.10;;;5.07;;
5912;SDS011;2982;42.684;23.356;2022-07-30T04:56:21;4.43;;;4.22;;
5912;SDS011;2982;42.684;23.356;2022-07-30T04:58:48;6.13;;;4.32;;
5912;SDS011;2982;42.684;23.356;2022-07-30T05:01:15;4.60;;;4.18;;
5912;SDS011;2982;42.684;23.356;2022-07-30T05:03:46;4.30;;;4.00;;
5912;SDS011;2982;42.684;23.356;2022-07-30T05:06:15;6.50;;;4.90;;
5912;SDS011;2982;42.684;23.356;2022-07-30T05:08:41;5.50;;;4.10;;
5912;SDS011;2982;42.684;23.356;2022-07-30T05:11:10;10.57;;;4.28;;
5912;SDS011;2982;42.684;23.356;2022-07-30T05:13:36;4.28;;;4.03;;
5912;SDS011;2982;42.684;23.356;2022-07-30T05:16:01;4.20;;;3.90;;
5912;SDS011;2982;42.684;23.356;2022-07-30T05:18:26;8.15;;;4.10;;
5912;SDS011;2982;42.684;23.356;2022-07-30T05:20:52;4.25;;;3.85;;
5912;SDS011;2982;42.684;23.356;2022-07-30T05:23:17;7.35;;;3.67;;
5912;SDS011;2982;42.684;23.356;2022-07-30T05:25:42;4.30;;;4.00;;
5912;SDS011;2982;42.684;23.356;2022-07-30T05:28:07;5.65;;;3.90;;
5912;SDS011;2982;42.684;23.356;2022-07-30T05:30:34;4.63;;;4.25;;
5912;SDS011;2982;42.684;23.356;2022-07-30T05:32:59;7.35;;;4.13;;
5912;SDS011;2982;42.684;23.356;2022-07-30T05:35:24;5.43;;;4.40;;
5912;SDS011;2982;42.684;23.356;2022-07-30T05:37:50;7.10;;;5.00;;
5912;SDS011;2982;42.684;23.356;2022-07-30T05:40:15;7.13;;;4.40;;
5912;SDS011;2982;42.684;23.356;2022-07-30T05:42:40;5.05;;;4.55;;
5912;SDS011;2982;42.684;23.356;2022-07-30T05:45:06;12.23;;;5.07;;
5912;SDS011;2982;42.684;23.356;2022-07-30T05:47:31;8.18;;;5.30;;
5912;SDS011;2982;42.684;23.356;2022-07-30T05:49:57;5.22;;;4.82;;
5912;SDS011;2982;42.684;23.356;2022-07-30T05:52:22;7.88;;;5.38;;
5912;SDS011;2982;42.684;23.356;2022-07-30T05:54:47;10.35;;;6.13;;
5912;SDS011;2982;42.684;23.356;2022-07-30T05:57:12;6.20;;;5.60;;
5912;SDS011;2982;42.684;23.356;2022-07-30T05:59:38;10.25;;;4.93;;
5912;SDS011;2982;42.684;23.356;2022-07-30T06:02:03;5.65;;;5.20;;
5912;SDS011;2982;42.684;23.356;2022-07-30T06:04:29;6.18;;;4.68;;
5912;SDS011;2982;42.684;23.356;2022-07-30T06:06:54;5.60;;;5.10;;
5912;SDS011;2982;42.684;23.356;2022-07-30T06:09:19;6.50;;;5.43;;
5912;SDS011;2982;42.684;23.356;2022-07-30T06:11:45;5.75;;;5.28;;
5912;SDS011;2982;42.684;23.356;2022-07-30T06:14:11;9.90;;;6.28;;
5912;SDS011;2982;42.684;23.356;2022-07-30T06:16:36;7.57;;;4.75;;
5912;SDS011;2982;42.684;23.356;2022-07-30T06:19:01;6.80;;;4.60;;
5912;SDS011;2982;42.684;23.356;2022-07-30T06:21:27;4.82;;;4.00;;
5912;SDS011;2982;42.684;23.356;2022-07-30T06:23:52;6.50;;;5.18;;
5912;SDS011;2982;42.684;23.356;2022-07-30T06:26:17;6.50;;;4.53;;
5912;SDS011;2982;42.684;23.356;2022-07-30T06:28:43;7.43;;;4.18;;
5912;SDS011;2982;42.684;23.356;2022-07-30T06:31:08;7.47;;;4.82;;
5912;SDS011;2982;42.684;23.356;2022-07-30T06:33:33;5.38;;;4.88;;
5912;SDS011;2982;42.684;23.356;2022-07-30T06:35:59;6.03;;;5.30;;
5912;SDS011;2982;42.684;23.356;2022-07-30T06:38:24;4.38;;;4.18;;
5912;SDS011;2982;42.684;23.356;2022-07-30T06:40:49;4.57;;;4.07;;
5912;SDS011;2982;42.684;23.356;2022-07-30T06:43:14;6.45;;;4.35;;
5912;SDS011;2982;42.684;23.356;2022-07-30T06:45:40;5.35;;;3.95;;
5912;SDS011;2982;42.684;23.356;2022-07-30T06:48:05;5.72;;;3.42;;
5912;SDS011;2982;42.684;23.356;2022-07-30T06:50:30;3.85;;;3.60;;
5912;SDS011;2982;42.684;23.356;2022-07-30T06:52:56;6.85;;;3.55;;
5912;SDS011;2982;42.684;23.356;2022-07-30T06:55:21;4.72;;;3.17;;
5912;SDS011;2982;42.684;23.356;2022-07-30T06:57:47;3.40;;;3.10;;
5912;SDS011;2982;42.684;23.356;2022-07-30T07:00:12;4.35;;;3.47;;
5912;SDS011;2982;42.684;23.356;2022-07-30T07:02:37;4.15;;;3.85;;
5912;SDS011;2982;42.684;23.356;2022-07-30T07:05:03;4.45;;;4.25;;
5912;SDS011;2982;42.684;23.356;2022-07-30T07:07:29;6.00;;;4.28;;
5912;SDS011;2982;42.684;23.356;2022-07-30T07:09:54;4.22;;;3.92;;
5912;SDS011;2982;42.684;23.356;2022-07-30T07:12:19;4.72;;;4.10;;
5912;SDS011;2982;42.684;23.356;2022-07-30T07:14:45;4.88;;;4.45;;
5912;SDS011;2982;42.684;23.356;2022-07-30T07:17:10;4.50;;;4.10;;
5912;SDS011;2982;42.684;23.356;2022-07-30T07:19:35;8.38;;;3.95;;
5912;SDS011;2982;42.684;23.356;2022-07-30T07:22:00;5.90;;;3.35;;
5912;SDS011;2982;42.684;23.356;2022-07-30T07:24:26;4.13;;;3.72;;
5912;SDS011;2982;42.684;23.356;2022-07-30T07:26:51;4.13;;;3.83;;
5912;SDS011;2982;42.684;23.356;2022-07-30T07:29:16;4.05;;;3.75;;
5912;SDS011;2982;42.684;23.356;2022-07-30T07:31:42;4.93;;;4.18;;
5912;SDS011;2982;42.684;23.356;2022-07-30T07:34:07;5.65;;;3.42;;
5912;SDS011;2982;42.684;23.356;2022-07-30T07:36:32;3.45;;;3.25;;
5912;SDS011;2982;42.684;23.356;2022-07-30T07:38:57;4.32;;;3.70;;
5912;SDS011;2982;42.684;23.356;2022-07-30T07:41:23;4.10;;;3.80;;
5912;SDS011;2982;42.684;23.356;2022-07-30T07:43:48;7.00;;;4.25;;
5912;SDS011;2982;42.684;23.356;2022-07-30T07:46:13;7.90;;;4.55;;
5912;SDS011;2982;42.684;23.356;2022-07-30T07:48:39;3.85;;;3.50;;
5912;SDS011;2982;42.684;23.356;2022-07-30T07:51:04;5.50;;;3.72;;
5912;SDS011;2982;42.684;23.356;2022-07-30T07:53:29;3.53;;;3.33;;
5912;SDS011;2982;42.684;23.356;2022-07-30T07:55:55;4.15;;;3.95;;
5912;SDS011;2982;42.684;23.356;2022-07-30T07:58:20;6.57;;;3.97;;
5912;SDS011;2982;42.684;23.356;2022-07-30T08:00:46;5.45;;;3.28;;
5912;SDS011;2982;42.684;23.356;2022-07-30T08:03:11;3.70;;;3.40;;
5912;SDS011;2982;42.684;23.356;2022-07-30T08:05:36;5.18;;;3.22;;
5912;SDS011;2982;42.684;23.356;2022-07-30T08:08:01;4.60;;;3.17;;
5912;SDS011;2982;42.684;23.356;2022-07-30T08:10:27;3.25;;;3.05;;
5912;SDS011;2982;42.684;23.356;2022-07-30T08:12:52;4.30;;;3.90;;
5912;SDS011;2982;42.684;23.356;2022-07-30T08:15:18;3.95;;;3.58;;
5912;SDS011;2982;42.684;23.356;2022-07-30T08:17:44;3.65;;;3.35;;
5912;SDS011;2982;42.684;23.356;2022-07-30T08:20:10;3.72;;;3.42;;
5912;SDS011;2982;42.684;23.356;2022-07-30T08:22:37;3.70;;;3.40;;
5912;SDS011;2982;42.684;23.356;2022-07-30T08:25:03;4.13;;;3.83;;
5912;SDS011;2982;42.684;23.356;2022-07-30T08:27:28;3.58;;;3.28;;
5912;SDS011;2982;42.684;23.356;2022-07-30T08:29:54;4.20;;;3.55;;
5912;SDS011;2982;42.684;23.356;2022-07-30T08:32:19;4.97;;;3.60;;
5912;SDS011;2982;42.684;23.356;2022-07-30T08:34:44;4.70;;;4.25;;
5912;SDS011;2982;42.684;23.356;2022-07-30T08:37:10;4.18;;;3.67;;
5912;SDS011;2982;42.684;23.356;2022-07-30T08:39:35;5.45;;;4.00;;
5912;SDS011;2982;42.684;23.356;2022-07-30T08:42:01;3.97;;;3.67;;
5912;SDS011;2982;42.684;23.356;2022-07-30T08:44:27;4.50;;;4.07;;
5912;SDS011;2982;42.684;23.356;2022-07-30T08:47:09;3.67;;;3.38;;
5912;SDS011;2982;42.684;23.356;2022-07-30T08:49:38;4.22;;;3.42;;
5912;SDS011;2982;42.684;23.356;2022-07-30T08:52:04;3.03;;;2.92;;
5912;SDS011;2982;42.684;23.356;2022-07-30T08:54:30;4.13;;;3.75;;
5912;SDS011;2982;42.684;23.356;2022-07-30T08:56:55;4.13;;;3.20;;
5912;SDS011;2982;42.684;23.356;2022-07-30T08:59:22;4.68;;;3.50;;
5912;SDS011;2982;42.684;23.356;2022-07-30T09:01:48;6.53;;;3.67;;
5912;SDS011;2982;42.684;23.356;2022-07-30T09:04:13;4.90;;;4.60;;
5912;SDS011;2982;42.684;23.356;2022-07-30T09:06:38;5.20;;;4.22;;
5912;SDS011;2982;42.684;23.356;2022-07-30T09:09:04;4.55;;;4.13;;
5912;SDS011;2982;42.684;23.356;2022-07-30T09:11:29;5.88;;;5.38;;
5912;SDS011;2982;42.684;23.356;2022-07-30T09:14:05;6.22;;;5.78;;
5912;SDS011;2982;42.684;23.356;2022-07-30T09:16:32;5.32;;;3.75;;
5912;SDS011;2982;42.684;23.356;2022-07-30T09:18:57;3.72;;;3.50;;
5912;SDS011;2982;42.684;23.356;2022-07-30T09:21:58;3.13;;;2.92;;
5912;SDS011;2982;42.684;23.356;2022-07-30T09:24:25;3.65;;;3.45;;
5912;SDS011;2982;42.684;23.356;2022-07-30T09:26:52;9.10;;;3.30;;
5912;SDS011;2982;42.684;23.356;2022-07-30T09:29:19;3.67;;;3.17;;
5912;SDS011;2982;42.684;23.356;2022-07-30T09:31:53;4.35;;;3.40;;
5912;SDS011;2982;42.684;23.356;2022-07-30T09:34:27;8.13;;;4.25;;
5912;SDS011;2982;42.684;23.356;2022-07-30T09:36:57;4.90;;;3.70;;
5912;SDS011;2982;42.684;23.356;2022-07-30T09:39:32;3.40;;;3.20;;
5912;SDS011;2982;42.684;23.356;2022-07-30T09:42:15;5.20;;;4.13;;
5912;SDS011;2982;42.684;23.356;2022-07-30T09:44:45;3.45;;;3.00;;
5912;SDS011;2982;42.684;23.356;2022-07-30T09:50:06;3.42;;;3.22;;
5912;SDS011;2982;42.684;23.356;2022-07-30T09:52:33;4.03;;;3.63;;
5912;SDS011;2982;42.684;23.356;2022-07-30T09:54:59;3.55;;;3.28;;
5912;SDS011;2982;42.684;23.356;2022-07-30T09:57:25;5.95;;;3.20;;
5912;SDS011;2982;42.684;23.356;2022-07-30T09:59:50;3.97;;;3.65;;
5912;SDS011;2982;42.684;23.356;2022-07-30T10:02:15;3.33;;;3.13;;
5912;SDS011;2982;42.684;23.356;2022-07-30T10:04:41;3.53;;;3.33;;
5912;SDS011;2982;42.684;23.356;2022-07-30T10:07:15;4.18;;;3.40;;
5912;SDS011;2982;42.684;23.356;2022-07-30T10:09:42;3.63;;;3.33;;
5912;SDS011;2982;42.684;23.356;2022-07-30T10:12:08;3.53;;;3.33;;
5912;SDS011;2982;42.684;23.356;2022-07-30T10:14:34;3.70;;;3.40;;
5912;SDS011;2982;42.684;23.356;2022-07-30T10:17:01;4.53;;;4.13;;
5912;SDS011;2982;42.684;23.356;2022-07-30T10:19:28;5.80;;;3.90;;
5912;SDS011;2982;42.684;23.356;2022-07-30T10:21:55;4.20;;;3.90;;
5912;SDS011;2982;42.684;23.356;2022-07-30T10:24:21;12.48;;;4.95;;
5912;SDS011;2982;42.684;23.356;2022-07-30T10:26:46;4.10;;;3.50;;
5912;SDS011;2982;42.684;23.356;2022-07-30T10:29:14;3.88;;;3.67;;
5912;SDS011;2982;42.684;23.356;2022-07-30T10:31:40;4.72;;;4.32;;
5912;SDS011;2982;42.684;23.356;2022-07-30T10:34:06;4.30;;;3.95;;
5912;SDS011;2982;42.684;23.356;2022-07-30T10:36:31;4.53;;;4.25;;
5912;SDS011;2982;42.684;23.356;2022-07-30T10:38:58;4.30;;;4.03;;
5912;SDS011;2982;42.684;23.356;2022-07-30T10:47:05;6.40;;;6.00;;
5912;SDS011;2982;42.684;23.356;2022-07-30T10:49:32;6.60;;;6.22;;
5912;SDS011;2982;42.684;23.356;2022-07-30T10:51:58;5.80;;;5.40;;
5912;SDS011;2982;42.684;23.356;2022-07-30T10:59:27;5.47;;;4.30;;
5912;SDS011;2982;42.684;23.356;2022-07-30T11:04:24;5.88;;;5.10;;
5912;SDS011;2982;42.684;23.356;2022-07-30T11:06:51;6.15;;;5.75;;
5912;SDS011;2982;42.684;23.356;2022-07-30T11:09:37;5.75;;;5.45;;
5912;SDS011;2982;42.684;23.356;2022-07-30T11:12:04;5.90;;;5.40;;
5912;SDS011;2982;42.684;23.356;2022-07-30T11:17:12;7.63;;;7.13;;
5912;SDS011;2982;42.684;23.356;2022-07-30T11:22:29;6.55;;;5.80;;
5912;SDS011;2982;42.684;23.356;2022-07-30T11:24:56;5.65;;;5.05;;
5912;SDS011;2982;42.684;23.356;2022-07-30T11:35:32;6.43;;;6.03;;
5912;SDS011;2982;42.684;23.356;2022-07-30T11:38:08;6.78;;;6.13;;
5912;SDS011;2982;42.684;23.356;2022-07-30T11:40:35;6.43;;;5.75;;
5912;SDS011;2982;42.684;23.356;2022-07-30T11:43:14;5.72;;;5.30;;
5912;SDS011;2982;42.684;23.356;2022-07-30T11:45:50;5.40;;;5.10;;
5912;SDS011;2982;42.684;23.356;2022-07-30T11:48:28;6.20;;;5.78;;
5912;SDS011;2982;42.684;23.356;2022-07-30T11:50:53;6.20;;;5.80;;
5912;SDS011;2982;42.684;23.356;2022-07-30T11:53:19;6.18;;;5.60;;
5912;SDS011;2982;42.684;23.356;2022-07-30T11:55:49;5.70;;;5.38;;
5912;SDS011;2982;42.684;23.356;2022-07-30T12:00:55;6.07;;;5.68;;
5912;SDS011;2982;42.684;23.356;2022-07-30T12:03:23;6.05;;;5.75;;
5912;SDS011;2982;42.684;23.356;2022-07-30T12:05:49;6.43;;;5.97;;
5912;SDS011;2982;42.684;23.356;2022-07-30T12:08:15;7.07;;;6.53;;
5912;SDS011;2982;42.684;23.356;2022-07-30T12:10:40;6.63;;;6.03;;
5912;SDS011;2982;42.684;23.356;2022-07-30T12:15:34;5.25;;;4.95;;
5912;SDS011;2982;42.684;23.356;2022-07-30T12:18:01;5.75;;;5.15;;
5912;SDS011;2982;42.684;23.356;2022-07-30T12:20:26;6.03;;;5.53;;
5912;SDS011;2982;42.684;23.356;2022-07-30T12:22:52;5.13;;;4.80;;
5912;SDS011;2982;42.684;23.356;2022-07-30T12:25:18;7.13;;;5.10;;
5912;SDS011;2982;42.684;23.356;2022-07-30T12:27:44;5.55;;;5.20;;
5912;SDS011;2982;42.684;23.356;2022-07-30T12:30:11;5.68;;;5.38;;
5912;SDS011;2982;42.684;23.356;2022-07-30T12:32:37;6.38;;;5.55;;
5912;SDS011;2982;42.684;23.356;2022-07-30T12:35:02;5.80;;;5.40;;
5912;SDS011;2982;42.684;23.356;2022-07-30T12:37:28;5.25;;;4.85;;
5912;SDS011;2982;42.684;23.356;2022-07-30T12:40:10;5.93;;;5.53;;
5912;SDS011;2982;42.684;23.356;2022-07-30T12:42:36;5.25;;;4.90;;
5912;SDS011;2982;42.684;23.356;2022-07-30T12:45:24;5.82;;;5.38;;
5912;SDS011;2982;42.684;23.356;2022-07-30T12:47:58;5.13;;;4.82;;
5912;SDS011;2982;42.684;23.356;2022-07-30T12:50:24;4.88;;;4.57;;
5912;SDS011;2982;42.684;23.356;2022-07-30T12:52:51;5.47;;;5.10;;
5912;SDS011;2982;42.684;23.356;2022-07-30T12:55:18;5.55;;;5.05;;
5912;SDS011;2982;42.684;23.356;2022-07-30T12:57:59;5.63;;;5.22;;
5912;SDS011;2982;42.684;23.356;2022-07-30T13:00:27;5.72;;;5.20;;
5912;SDS011;2982;42.684;23.356;2022-07-30T13:02:54;5.72;;;5.32;;
5912;SDS011;2982;42.684;23.356;2022-07-30T13:05:20;5.45;;;5.05;;
5912;SDS011;2982;42.684;23.356;2022-07-30T13:08:05;5.20;;;4.90;;
5912;SDS011;2982;42.684;23.356;2022-07-30T13:10:30;5.93;;;4.60;;
5912;SDS011;2982;42.684;23.356;2022-07-30T13:12:55;6.25;;;5.40;;
5912;SDS011;2982;42.684;23.356;2022-07-30T13:15:21;5.68;;;5.38;;
5912;SDS011;2982;42.684;23.356;2022-07-30T13:17:47;5.28;;;5.03;;
5912;SDS011;2982;42.684;23.356;2022-07-30T13:20:14;5.55;;;5.05;;
5912;SDS011;2982;42.684;23.356;2022-07-30T13:22:40;6.13;;;4.80;;
5912;SDS011;2982;42.684;23.356;2022-07-30T13:25:06;5.07;;;4.78;;
5912;SDS011;2982;42.684;23.356;2022-07-30T13:27:31;4.90;;;4.60;;
5912;SDS011;2982;42.684;23.356;2022-07-30T13:29:57;9.45;;;5.63;;
5912;SDS011;2982;42.684;23.356;2022-07-30T13:32:22;5.13;;;4.80;;
5912;SDS011;2982;42.684;23.356;2022-07-30T13:34:47;5.38;;;4.97;;
5912;SDS011;2982;42.684;23.356;2022-07-30T13:37:13;6.88;;;5.15;;
5912;SDS011;2982;42.684;23.356;2022-07-30T13:39:38;4.88;;;4.60;;
5912;SDS011;2982;42.684;23.356;2022-07-30T13:42:03;4.90;;;4.70;;
5912;SDS011;2982;42.684;23.356;2022-07-30T13:44:29;5.40;;;5.10;;
5912;SDS011;2982;42.684;23.356;2022-07-30T13:46:54;4.50;;;4.22;;
5912;SDS011;2982;42.684;23.356;2022-07-30T13:49:19;4.93;;;4.63;;
5912;SDS011;2982;42.684;23.356;2022-07-30T13:51:44;4.88;;;4.50;;
5912;SDS011;2982;42.684;23.356;2022-07-30T13:54:10;5.13;;;4.70;;
5912;SDS011;2982;42.684;23.356;2022-07-30T13:56:35;5.80;;;5.15;;
5912;SDS011;2982;42.684;23.356;2022-07-30T13:59:00;5.22;;;4.82;;
5912;SDS011;2982;42.684;23.356;2022-07-30T14:01:26;4.68;;;4.38;;
5912;SDS011;2982;42.684;23.356;2022-07-30T14:03:51;4.65;;;4.35;;
5912;SDS011;2982;42.684;23.356;2022-07-30T14:06:17;5.28;;;4.82;;
5912;SDS011;2982;42.684;23.356;2022-07-30T14:08:43;5.13;;;4.68;;
5912;SDS011;2982;42.684;23.356;2022-07-30T14:11:08;5.90;;;5.18;;
5912;SDS011;2982;42.684;23.356;2022-07-30T14:13:34;5.15;;;4.85;;
5912;SDS011;2982;42.684;23.356;2022-07-30T14:15:59;5.32;;;5.03;;
5912;SDS011;2982;42.684;23.356;2022-07-30T14:18:24;5.70;;;5.38;;
5912;SDS011;2982;42.684;23.356;2022-07-30T14:20:49;5.68;;;5.38;;
5912;SDS011;2982;42.684;23.356;2022-07-30T14:23:15;6.40;;;5.05;;
5912;SDS011;2982;42.684;23.356;2022-07-30T14:25:40;5.63;;;5.10;;
5912;SDS011;2982;42.684;23.356;2022-07-30T14:28:06;5.43;;;4.95;;
5912;SDS011;2982;42.684;23.356;2022-07-30T14:30:31;5.10;;;4.80;;
5912;SDS011;2982;42.684;23.356;2022-07-30T14:32:56;5.43;;;4.90;;
5912;SDS011;2982;42.684;23.356;2022-07-30T14:35:21;5.93;;;5.53;;
5912;SDS011;2982;42.684;23.356;2022-07-30T14:37:47;5.32;;;5.03;;
5912;SDS011;2982;42.684;23.356;2022-07-30T14:40:12;9.15;;;6.55;;
5912;SDS011;2982;42.684;23.356;2022-07-30T14:42:38;20.65;;;9.10;;
5912;SDS011;2982;42.684;23.356;2022-07-30T14:45:04;12.20;;;8.57;;
5912;SDS011;2982;42.684;23.356;2022-07-30T14:47:30;26.27;;;9.55;;
5912;SDS011;2982;42.684;23.356;2022-07-30T14:49:55;16.92;;;10.38;;
5912;SDS011;2982;42.684;23.356;2022-07-30T14:52:21;9.15;;;8.05;;
5912;SDS011;2982;42.684;23.356;2022-07-30T14:54:46;15.07;;;8.20;;
5912;SDS011;2982;42.684;23.356;2022-07-30T14:57:11;8.68;;;7.82;;
5912;SDS011;2982;42.684;23.356;2022-07-30T14:59:36;12.60;;;9.73;;
5912;SDS011;2982;42.684;23.356;2022-07-30T15:02:02;17.30;;;10.95;;
5912;SDS011;2982;42.684;23.356;2022-07-30T15:04:27;16.98;;;10.65;;
5912;SDS011;2982;42.684;23.356;2022-07-30T15:06:52;20.13;;;11.45;;
5912;SDS011;2982;42.684;23.356;2022-07-30T15:09:18;11.30;;;10.27;;
5912;SDS011;2982;42.684;23.356;2022-07-30T15:11:43;12.63;;;9.40;;
5912;SDS011;2982;42.684;23.356;2022-07-30T15:14:08;11.95;;;10.50;;
5912;SDS011;2982;42.684;23.356;2022-07-30T15:16:33;17.02;;;10.70;;
5912;SDS011;2982;42.684;23.356;2022-07-30T15:18:59;9.40;;;8.57;;
5912;SDS011;2982;42.684;23.356;2022-07-30T15:21:24;8.13;;;7.53;;
5912;SDS011;2982;42.684;23.356;2022-07-30T15:23:49;6.28;;;5.65;;
5912;SDS011;2982;42.684;23.356;2022-07-30T15:26:15;6.78;;;6.28;;
5912;SDS011;2982;42.684;23.356;2022-07-30T15:28:40;6.65;;;6.20;;
5912;SDS011;2982;42.684;23.356;2022-07-30T15:31:06;9.25;;;7.30;;
5912;SDS011;2982;42.684;23.356;2022-07-30T15:33:31;5.97;;;5.63;;